Time;durP1;ratioP1;P1;durP2;ratioP2;P2;SDS_P1;SDS_P2;PMS_P1;PMS_P2;Temp;Humidity;BMP_temperature;BMP_pressure;BME280_temperature;BME280_humidity;BME280_pressure;Samples;Min_cycle;Max_cycle;Signal;HPM_P1;HPM_P2
2023/07/15 00:01:18;;;;;;;4.82;2.80;;;18.60;99.90;;;;;;6247136;23;20560;-94
2023/07/15 00:03:47;;;;;;;4.72;2.78;;;18.60;99.90;;;;;;6247182;23;20661;-96
2023/07/15 00:06:14;;;;;;;6.68;2.78;;;18.70;99.90;;;;;;6247637;23;20172;-94
2023/07/15 00:08:41;;;;;;;3.00;2.70;;;18.70;99.90;;;;;;6246707;23;20163;-94
2023/07/15 00:11:14;;;;;;;5.05;2.75;;;18.80;99.90;;;;;;6246791;23;20204;-95
2023/07/15 00:13:41;;;;;;;4.28;2.72;;;18.70;99.90;;;;;;6246676;23;20215;-93
2023/07/15 00:16:09;;;;;;;3.42;2.25;;;18.80;99.90;;;;;;6248571;23;20168;-95
2023/07/15 00:18:36;;;;;;;3.33;2.50;;;18.80;99.90;;;;;;6248701;23;20689;-94
2023/07/15 00:21:16;;;;;;;3.28;2.70;;;18.80;99.90;;;;;;6249059;23;20199;-95
2023/07/15 00:23:43;;;;;;;4.00;2.67;;;18.80;99.90;;;;;;6248871;23;20161;-94
2023/07/15 00:26:10;;;;;;;5.03;2.80;;;18.80;99.90;;;;;;6248924;23;20623;-95
2023/07/15 00:28:38;;;;;;;3.80;2.70;;;18.80;99.90;;;;;;6248601;23;20255;-95
2023/07/15 00:31:13;;;;;;;6.15;2.40;;;18.80;99.90;;;;;;6249072;23;20172;-94
2023/07/15 00:33:40;;;;;;;3.78;2.83;;;18.80;99.90;;;;;;6248543;23;20163;-94
2023/07/15 00:36:10;;;;;;;3.65;2.70;;;18.80;99.90;;;;;;6248049;23;20249;-95
2023/07/15 00:38:37;;;;;;;3.53;2.88;;;18.80;99.90;;;;;;6248961;23;20175;-94
2023/07/15 00:41:06;;;;;;;6.70;3.17;;;18.80;99.90;;;;;;6248125;23;20835;-95
2023/07/15 00:43:56;;;;;;;4.47;2.70;;;18.80;99.90;;;;;;6248263;23;20172;-95
2023/07/15 00:47:21;;;;;;;4.88;2.78;;;18.80;99.90;;;;;;6248791;23;20166;-95
2023/07/15 00:49:49;;;;;;;3.33;2.70;;;18.80;99.90;;;;;;6248554;23;20153;-94
2023/07/15 00:52:20;;;;;;;4.28;2.92;;;18.90;99.90;;;;;;6248504;23;20168;-94
2023/07/15 00:54:52;;;;;;;5.22;3.10;;;18.90;99.90;;;;;;6248691;23;20156;-96
2023/07/15 00:57:20;;;;;;;2.75;2.40;;;18.80;99.90;;;;;;6248730;23;20219;-95
2023/07/15 00:59:51;;;;;;;6.55;2.92;;;18.80;99.90;;;;;;6248646;23;20517;-95
2023/07/15 01:02:20;;;;;;;3.72;2.53;;;18.80;99.90;;;;;;6248338;23;20218;-94
2023/07/15 01:04:48;;;;;;;4.38;2.67;;;18.80;99.90;;;;;;6248406;23;20549;-95
2023/07/15 01:07:15;;;;;;;4.05;3.00;;;18.80;99.90;;;;;;6248061;23;20171;-95
2023/07/15 01:09:42;;;;;;;3.83;2.70;;;18.80;99.90;;;;;;6248838;23;20206;-94
2023/07/15 01:12:10;;;;;;;4.38;2.80;;;18.70;99.90;;;;;;6248192;23;20169;-94
2023/07/15 01:14:37;;;;;;;3.58;2.70;;;18.80;99.90;;;;;;6248377;23;20219;-95
2023/07/15 01:17:05;;;;;;;3.33;2.63;;;18.80;99.90;;;;;;6248603;23;20175;-94
2023/07/15 01:19:34;;;;;;;4.65;2.78;;;18.80;99.90;;;;;;6248202;23;20176;-94
2023/07/15 01:22:02;;;;;;;3.95;2.58;;;18.80;99.90;;;;;;6248569;23;20250;-94
2023/07/15 01:24:30;;;;;;;3.63;2.60;;;18.80;99.90;;;;;;6248056;23;20251;-94
2023/07/15 01:27:03;;;;;;;3.80;2.63;;;18.80;99.90;;;;;;6247849;23;20172;-94
2023/07/15 01:29:30;;;;;;;4.05;2.63;;;18.70;99.90;;;;;;6248342;23;20214;-93
2023/07/15 01:31:57;;;;;;;3.35;2.60;;;18.70;99.90;;;;;;6248531;23;20164;-94
2023/07/15 01:34:24;;;;;;;3.33;2.55;;;18.70;99.90;;;;;;6247589;23;20168;-94
2023/07/15 01:36:51;;;;;;;6.70;2.75;;;18.70;99.90;;;;;;6247836;23;20196;-94
2023/07/15 01:41:55;;;;;;;3.42;2.60;;;18.60;99.90;;;;;;6199847;22;20187;-93
2023/07/15 01:44:23;;;;;;;4.15;2.42;;;18.60;99.90;;;;;;6279090;22;20152;-94
2023/07/15 01:46:50;;;;;;;3.58;2.60;;;18.60;99.90;;;;;;6278850;22;20179;-94
2023/07/15 01:49:17;;;;;;;4.50;3.00;;;18.60;99.90;;;;;;6278977;22;20254;-93
2023/07/15 01:51:44;;;;;;;4.20;2.90;;;18.60;99.90;;;;;;6279038;22;20198;-94
2023/07/15 01:54:11;;;;;;;4.55;2.92;;;18.60;99.90;;;;;;6278529;22;20205;-95
2023/07/15 01:56:41;;;;;;;4.38;2.95;;;18.60;99.90;;;;;;6278865;22;20193;-95
2023/07/15 01:59:10;;;;;;;4.30;2.95;;;18.60;99.90;;;;;;6279071;22;20171;-95
2023/07/15 02:01:37;;;;;;;5.55;3.20;;;18.60;99.90;;;;;;6278422;22;20219;-95
2023/07/15 02:04:04;;;;;;;4.35;3.30;;;18.70;99.90;;;;;;6278883;22;20174;-96
2023/07/15 02:06:31;;;;;;;4.25;2.70;;;18.70;99.90;;;;;;6279201;22;20226;-95
2023/07/15 02:08:58;;;;;;;5.70;2.85;;;18.80;99.90;;;;;;6279049;22;20251;-95
2023/07/15 02:11:25;;;;;;;5.10;2.92;;;18.80;99.90;;;;;;6278788;22;20250;-96
2023/07/15 02:13:52;;;;;;;4.80;3.40;;;18.80;99.90;;;;;;6279026;22;20202;-94
2023/07/15 02:16:21;;;;;;;4.38;2.85;;;18.80;99.90;;;;;;6278564;22;20206;-94
2023/07/15 02:18:49;;;;;;;4.78;3.30;;;18.80;99.90;;;;;;6279262;22;20167;-94
2023/07/15 02:21:15;;;;;;;4.00;3.22;;;18.80;99.90;;;;;;6278421;22;20675;-95
2023/07/15 02:23:42;;;;;;;4.35;3.20;;;18.80;99.90;;;;;;6278581;22;20178;-96
2023/07/15 02:26:09;;;;;;;4.25;2.90;;;18.80;99.90;;;;;;6278763;22;20202;-94
2023/07/15 02:28:37;;;;;;;3.45;2.70;;;18.80;99.90;;;;;;6278033;22;20217;-94
2023/07/15 02:31:04;;;;;;;3.22;2.83;;;18.80;99.90;;;;;;6278582;22;20169;-95
2023/07/15 02:33:32;;;;;;;5.82;3.03;;;18.80;99.90;;;;;;6278791;22;20199;-95
2023/07/15 02:35:59;;;;;;;4.18;2.83;;;18.80;99.90;;;;;;6278759;22;20619;-94
2023/07/15 02:38:26;;;;;;;4.00;2.80;;;18.80;99.90;;;;;;6278205;22;20173;-95
2023/07/15 02:40:55;;;;;;;3.72;2.65;;;18.90;99.90;;;;;;6278730;22;20203;-95
2023/07/15 02:43:22;;;;;;;3.05;2.70;;;19.00;99.90;;;;;;6278490;22;20241;-93
2023/07/15 02:45:51;;;;;;;4.35;2.88;;;19.00;99.90;;;;;;6278626;22;20203;-95
2023/07/15 02:48:19;;;;;;;3.92;2.72;;;19.10;99.90;;;;;;6278257;22;20172;-93
2023/07/15 02:50:51;;;;;;;5.75;2.88;;;19.20;99.90;;;;;;6278777;22;20254;-94
2023/07/15 02:53:18;;;;;;;5.10;2.97;;;19.20;99.90;;;;;;6278408;22;20156;-94
2023/07/15 02:55:45;;;;;;;8.57;3.20;;;19.30;99.90;;;;;;6278093;22;20194;-94
2023/07/15 02:58:13;;;;;;;4.28;2.80;;;19.30;99.90;;;;;;6278013;22;20206;-94
2023/07/15 03:00:40;;;;;;;3.90;2.58;;;19.40;99.90;;;;;;6278354;22;20194;-95
2023/07/15 03:03:09;;;;;;;3.72;2.72;;;19.50;99.90;;;;;;6278441;22;20234;-95
2023/07/15 03:05:36;;;;;;;5.15;2.97;;;19.60;99.90;;;;;;6277941;22;20194;-93
2023/07/15 03:08:05;;;;;;;3.50;2.80;;;19.60;99.90;;;;;;6277650;22;20693;-94
2023/07/15 03:10:31;;;;;;;5.82;2.50;;;19.70;99.90;;;;;;6278085;22;20199;-93
2023/07/15 03:12:58;;;;;;;3.83;2.80;;;19.70;99.90;;;;;;6278458;22;20176;-95
2023/07/15 03:15:25;;;;;;;4.75;3.05;;;19.80;99.90;;;;;;6278178;22;20199;-94
2023/07/15 03:17:52;;;;;;;5.43;3.13;;;19.90;99.90;;;;;;6278296;22;20250;-95
2023/07/15 03:20:20;;;;;;;4.57;3.00;;;19.90;99.90;;;;;;6278092;22;20187;-95
2023/07/15 03:22:48;;;;;;;6.32;2.95;;;19.90;99.90;;;;;;6278390;22;20198;-94
2023/07/15 03:25:17;;;;;;;6.80;3.78;;;19.90;99.90;;;;;;6278381;22;20168;-96
2023/07/15 03:27:44;;;;;;;4.75;2.92;;;20.00;99.90;;;;;;6277919;22;20636;-95
2023/07/15 03:30:11;;;;;;;6.57;3.22;;;20.00;99.90;;;;;;6278035;22;20174;-95
2023/07/15 03:32:40;;;;;;;4.07;2.80;;;19.90;99.90;;;;;;6278362;22;20167;-95
2023/07/15 03:35:09;;;;;;;7.97;3.38;;;19.90;99.90;;;;;;6277815;22;20214;-95
2023/07/15 03:37:37;;;;;;;5.75;2.90;;;19.80;99.90;;;;;;6277937;22;20171;-93
2023/07/15 03:40:05;;;;;;;3.65;3.30;;;19.80;99.90;;;;;;6278381;22;20178;-94
2023/07/15 03:42:34;;;;;;;7.43;4.00;;;19.70;99.90;;;;;;6277935;22;20199;-94
2023/07/15 03:45:01;;;;;;;6.43;3.30;;;19.60;99.90;;;;;;6278079;22;20229;-92
2023/07/15 03:47:28;;;;;;;5.75;3.70;;;19.50;99.90;;;;;;6278338;22;20228;-93
2023/07/15 03:49:54;;;;;;;5.38;3.65;;;19.40;99.90;;;;;;6278362;22;20172;-93
2023/07/15 03:52:21;;;;;;;4.13;3.10;;;19.30;99.90;;;;;;6280108;22;20251;-93
2023/07/15 03:54:48;;;;;;;4.82;3.33;;;19.30;99.90;;;;;;6280419;22;20191;-94
2023/07/15 03:57:15;;;;;;;5.10;3.10;;;19.20;99.90;;;;;;6280162;22;20248;-94
2023/07/15 03:59:43;;;;;;;5.32;3.22;;;19.30;99.90;;;;;;6280188;22;20254;-94
2023/07/15 04:02:10;;;;;;;6.10;3.10;;;19.30;99.90;;;;;;6280113;22;20270;-94
2023/07/15 04:04:37;;;;;;;3.95;2.92;;;19.50;99.90;;;;;;6280081;22;20256;-95
2023/07/15 04:07:04;;;;;;;3.13;2.80;;;19.90;99.90;;;;;;6279614;22;20178;-95
2023/07/15 04:09:31;;;;;;;4.32;3.10;;;20.30;99.90;;;;;;6279501;22;20503;-93
2023/07/15 04:11:57;;;;;;;7.97;3.05;;;20.50;99.90;;;;;;6279493;22;20247;-95
2023/07/15 04:14:24;;;;;;;3.97;2.90;;;20.80;99.90;;;;;;6279697;22;20223;-96
2023/07/15 04:16:52;;;;;;;3.95;2.53;;;21.40;99.90;;;;;;6280031;22;20168;-95
2023/07/15 04:19:19;;;;;;;8.57;2.80;;;22.20;99.90;;;;;;6280060;22;20247;-95
2023/07/15 04:21:46;;;;;;;4.80;2.80;;;23.00;99.90;;;;;;6279573;22;20191;-94
2023/07/15 04:24:13;;;;;;;5.03;2.83;;;23.60;99.90;;;;;;6279653;22;20176;-95
2023/07/15 04:26:40;;;;;;;3.88;2.72;;;24.10;99.90;;;;;;6280114;22;20180;-95
2023/07/15 04:29:08;;;;;;;3.88;2.67;;;24.60;99.90;;;;;;6280611;22;20652;-96
2023/07/15 04:31:36;;;;;;;4.70;2.40;;;25.00;99.90;;;;;;6280361;22;20171;-96
2023/07/15 04:34:04;;;;;;;4.25;2.50;;;25.30;99.90;;;;;;6280411;22;20178;-96
2023/07/15 04:36:31;;;;;;;4.20;2.45;;;25.60;99.90;;;;;;6283149;22;20203;-96
2023/07/15 04:38:58;;;;;;;4.53;2.40;;;25.80;99.90;;;;;;6282113;22;20230;-96
2023/07/15 04:41:25;;;;;;;3.10;2.58;;;25.90;99.90;;;;;;6283305;22;20163;-96
2023/07/15 04:43:52;;;;;;;3.42;2.42;;;26.00;99.90;;;;;;6281879;22;20255;-96
2023/07/15 04:46:20;;;;;;;5.53;2.92;;;26.30;99.90;;;;;;6286687;22;20203;-96
2023/07/15 04:48:46;;;;;;;4.25;2.45;;;26.60;99.90;;;;;;6288428;22;20171;-96
2023/07/15 04:51:15;;;;;;;3.20;2.28;;;26.90;99.90;;;;;;6285490;22;20218;-96
2023/07/15 04:53:43;;;;;;;2.60;2.22;;;27.10;99.90;;;;;;6292111;22;20219;-96
2023/07/15 04:56:11;;;;;;;4.28;2.50;;;27.40;99.90;;;;;;6300197;22;20178;-96
2023/07/15 04:58:38;;;;;;;3.78;2.20;;;27.60;99.90;;;;;;6288217;22;20168;-96
2023/07/15 05:01:05;;;;;;;2.55;2.30;;;27.70;99.90;;;;;;6284373;22;20219;-96
2023/07/15 05:03:33;;;;;;;4.68;2.22;;;27.80;99.90;;;;;;6270934;22;20179;-96
2023/07/15 05:06:00;;;;;;;4.35;2.72;;;27.60;99.90;;;;;;6283864;22;20203;-96
2023/07/15 05:08:28;;;;;;;4.70;2.50;;;27.10;99.90;;;;;;6283342;22;20160;-96
2023/07/15 05:10:57;;;;;;;2.95;2.50;;;26.60;99.90;;;;;;6283541;22;20203;-96
2023/07/15 05:13:25;;;;;;;2.53;2.20;;;26.30;99.90;;;;;;6284227;22;20194;-94
2023/07/15 05:15:51;;;;;;;2.60;2.40;;;26.00;99.90;;;;;;6283534;22;20632;-96
2023/07/15 05:18:18;;;;;;;3.85;2.28;;;25.70;99.90;;;;;;6284430;22;20164;-96
2023/07/15 05:20:45;;;;;;;5.05;2.80;;;25.50;99.90;;;;;;6282194;22;20172;-96
2023/07/15 05:23:14;;;;;;;3.30;2.50;;;25.30;99.90;;;;;;6282371;22;20222;-96
2023/07/15 05:25:42;;;;;;;4.50;2.47;;;25.10;99.90;;;;;;6287393;22;20197;-95
2023/07/15 05:28:09;;;;;;;3.72;2.65;;;25.00;99.90;;;;;;6286632;22;20258;-96
2023/07/15 05:30:37;;;;;;;6.30;2.50;;;24.90;99.90;;;;;;6289040;22;20172;-96
2023/07/15 05:33:04;;;;;;;4.13;2.60;;;24.80;99.90;;;;;;6284356;22;20167;-96
2023/07/15 05:35:31;;;;;;;4.13;2.53;;;24.60;99.90;;;;;;6285089;22;20174;-95
2023/07/15 05:37:58;;;;;;;4.18;2.75;;;24.50;99.90;;;;;;6280077;22;20179;-96
2023/07/15 05:40:25;;;;;;;3.67;2.67;;;24.40;99.90;;;;;;6281891;22;20243;-95
2023/07/15 05:42:53;;;;;;;3.50;2.75;;;24.40;99.90;;;;;;6286327;22;20195;-95
2023/07/15 05:45:20;;;;;;;4.57;2.65;;;24.30;99.90;;;;;;6285716;22;20669;-96
2023/07/15 05:47:47;;;;;;;4.43;2.70;;;24.30;99.90;;;;;;6287009;22;20207;-96
2023/07/15 05:50:14;;;;;;;3.25;2.65;;;24.30;99.90;;;;;;6281717;22;20176;-96
2023/07/15 05:52:41;;;;;;;5.57;2.83;;;24.30;99.90;;;;;;6282682;22;20203;-95
2023/07/15 05:55:08;;;;;;;3.92;2.70;;;24.40;99.90;;;;;;6280701;22;20179;-96
2023/07/15 05:57:35;;;;;;;3.80;2.92;;;24.40;99.90;;;;;;6286351;22;20172;-96
2023/07/15 06:00:07;;;;;;;7.13;2.97;;;24.50;99.90;;;;;;6285480;22;20684;-96
2023/07/15 06:02:37;;;;;;;4.38;2.65;;;24.50;99.90;;;;;;6296923;22;20172;-96
2023/07/15 06:05:04;;;;;;;6.03;2.92;;;24.50;99.90;;;;;;6297872;22;20164;-96
2023/07/15 06:07:31;;;;;;;6.78;2.75;;;24.50;99.90;;;;;;6257473;22;20234;-95
2023/07/15 06:09:58;;;;;;;3.40;2.80;;;24.50;99.90;;;;;;6257934;23;20183;-96
2023/07/15 06:12:25;;;;;;;6.53;3.33;;;24.50;99.90;;;;;;6258260;23;20172;-95
2023/07/15 06:14:52;;;;;;;5.65;3.42;;;24.60;99.90;;;;;;6257328;23;20218;-94
2023/07/15 06:17:22;;;;;;;3.67;3.13;;;24.60;99.90;;;;;;6262314;23;20199;-95
2023/07/15 06:19:52;;;;;;;5.00;3.33;;;24.70;99.90;;;;;;6261058;23;20252;-96
2023/07/15 06:22:18;;;;;;;5.35;3.38;;;24.70;99.90;;;;;;6254706;23;20384;-96
2023/07/15 06:24:46;;;;;;;5.93;3.65;;;24.80;99.90;;;;;;6253495;23;20191;-95
2023/07/15 06:27:14;;;;;;;4.80;3.53;;;24.90;99.90;;;;;;6261248;23;20192;-95
2023/07/15 06:29:44;;;;;;;4.65;3.22;;;25.00;99.90;;;;;;6266683;22;20169;-96
2023/07/15 06:32:11;;;;;;;5.22;3.58;;;25.10;99.90;;;;;;6261967;23;20195;-96
2023/07/15 06:34:39;;;;;;;4.45;3.47;;;25.10;99.90;;;;;;6261252;23;20176;-96
2023/07/15 06:37:09;;;;;;;5.57;3.63;;;25.20;99.90;;;;;;6260376;23;20199;-96
2023/07/15 06:39:36;;;;;;;6.10;3.22;;;25.20;99.90;;;;;;6262128;23;20169;-96
2023/07/15 06:42:04;;;;;;;6.53;3.35;;;25.40;99.90;;;;;;6258820;23;20257;-95
2023/07/15 06:44:31;;;;;;;5.82;3.50;;;25.40;99.90;;;;;;6261380;23;20184;-96
2023/07/15 06:46:58;;;;;;;5.60;3.65;;;25.50;99.90;;;;;;6257530;23;20689;-96
2023/07/15 06:49:25;;;;;;;4.55;3.50;;;25.50;99.90;;;;;;6265037;23;20164;-96
2023/07/15 06:51:53;;;;;;;7.97;3.47;;;25.60;99.90;;;;;;6260933;23;20165;-96
2023/07/15 06:54:21;;;;;;;4.43;3.45;;;25.60;99.90;;;;;;6268360;23;20188;-96
2023/07/15 06:56:51;;;;;;;5.07;3.83;;;25.60;99.90;;;;;;6267459;23;20180;-96
2023/07/15 06:59:18;;;;;;;3.85;3.28;;;25.70;99.90;;;;;;6264537;23;20175;-96
2023/07/15 07:01:45;;;;;;;7.85;3.58;;;25.80;99.90;;;;;;6267968;23;20172;-95
2023/07/15 07:04:12;;;;;;;7.05;3.90;;;25.80;99.90;;;;;;6266401;22;20188;-96
2023/07/15 07:06:39;;;;;;;4.95;3.50;;;25.90;99.90;;;;;;6262624;23;20203;-94
2023/07/15 07:09:09;;;;;;;6.88;3.50;;;25.90;99.90;;;;;;6267733;23;20168;-96
2023/07/15 07:11:38;;;;;;;4.47;3.70;;;26.10;99.90;;;;;;6270753;22;20176;-96
2023/07/15 07:14:05;;;;;;;4.80;4.00;;;26.20;99.90;;;;;;6272194;22;20175;-96
2023/07/15 07:16:32;;;;;;;6.05;3.80;;;26.30;99.90;;;;;;6271569;22;20207;-95
2023/07/15 07:21:33;;;;;;;5.53;3.50;;;26.40;99.90;;;;;;6272978;22;20223;-96
2023/07/15 07:24:00;;;;;;;4.78;3.50;;;26.50;99.90;;;;;;6271275;23;20188;-96
2023/07/15 07:26:29;;;;;;;6.07;3.30;;;26.50;99.90;;;;;;6266516;23;20156;-96
2023/07/15 07:28:55;;;;;;;4.35;3.40;;;26.60;99.90;;;;;;6269983;22;20149;-96
2023/07/15 07:31:22;;;;;;;4.93;3.33;;;26.60;99.90;;;;;;6267838;22;20219;-96
2023/07/15 07:33:52;;;;;;;5.00;3.33;;;26.70;99.90;;;;;;6268305;23;20153;-96
2023/07/15 07:36:22;;;;;;;5.22;3.65;;;26.90;99.90;;;;;;6281791;22;20190;-96
2023/07/15 07:38:49;;;;;;;6.28;3.80;;;27.00;99.90;;;;;;6298740;22;20155;-96
2023/07/15 07:41:16;;;;;;;5.70;3.65;;;27.00;99.90;;;;;;6268489;22;20203;-95
2023/07/15 07:43:45;;;;;;;6.05;3.45;;;27.10;99.90;;;;;;6263805;23;20196;-96
2023/07/15 07:46:13;;;;;;;4.47;3.55;;;27.10;99.90;;;;;;6266961;23;20156;-96
2023/07/15 07:48:40;;;;;;;3.63;3.05;;;27.20;99.90;;;;;;6267924;23;20179;-96
2023/07/15 07:51:09;;;;;;;6.07;3.80;;;27.30;99.90;;;;;;6265516;23;20179;-96
2023/07/15 07:53:37;;;;;;;4.57;3.35;;;27.40;99.90;;;;;;6272165;22;20167;-95
2023/07/15 07:56:04;;;;;;;4.43;3.50;;;27.40;99.90;;;;;;6270946;23;20167;-96
2023/07/15 08:03:42;;;;;;;4.35;3.42;;;27.60;99.90;;;;;;6272241;22;20271;-95
2023/07/15 08:06:11;;;;;;;3.97;3.42;;;27.70;99.90;;;;;;6239372;22;20220;-94
2023/07/15 08:08:38;;;;;;;5.57;3.40;;;27.80;99.90;;;;;;6253356;22;20263;-95
2023/07/15 08:11:06;;;;;;;6.22;2.88;;;27.80;99.90;;;;;;6257346;23;20168;-92
2023/07/15 08:13:32;;;;;;;5.43;3.47;;;28.00;99.90;;;;;;6248922;23;20161;-91
2023/07/15 08:16:00;;;;;;;4.95;3.05;;;28.00;99.90;;;;;;6246067;23;20188;-92
2023/07/15 08:18:27;;;;;;;6.43;3.13;;;28.10;99.90;;;;;;6246627;23;20200;-91
2023/07/15 08:20:55;;;;;;;6.47;3.40;;;28.20;99.90;;;;;;6246665;23;20169;-92
2023/07/15 08:23:22;;;;;;;5.05;3.08;;;28.20;99.90;;;;;;6247219;23;20271;-93
2023/07/15 08:25:49;;;;;;;3.97;3.10;;;28.30;99.90;;;;;;6246775;23;20260;-93
2023/07/15 08:28:16;;;;;;;5.97;3.05;;;28.30;99.90;;;;;;6246343;23;20231;-93
2023/07/15 08:30:42;;;;;;;4.45;3.05;;;28.40;99.90;;;;;;6246847;23;20251;-93
2023/07/15 08:33:10;;;;;;;4.70;3.30;;;28.50;99.90;;;;;;6246088;23;20172;-94
2023/07/15 08:35:37;;;;;;;4.03;3.30;;;28.50;99.90;;;;;;6246933;23;20228;-94
2023/07/15 08:38:05;;;;;;;4.50;3.15;;;28.60;99.90;;;;;;6248290;23;20626;-94
2023/07/15 08:40:35;;;;;;;5.05;3.40;;;28.70;99.90;;;;;;6248219;23;20276;-91
2023/07/15 08:43:04;;;;;;;5.55;3.22;;;28.70;99.90;;;;;;6248045;23;20165;-94
2023/07/15 08:45:35;;;;;;;5.70;3.13;;;28.70;99.90;;;;;;6248712;23;20610;-92
2023/07/15 08:48:03;;;;;;;5.22;3.10;;;28.70;99.90;;;;;;6247779;23;20618;-94
2023/07/15 08:50:34;;;;;;;4.47;3.00;;;28.70;99.90;;;;;;6248073;23;20175;-94
2023/07/15 08:53:02;;;;;;;5.03;3.15;;;28.70;99.90;;;;;;6248226;23;20151;-93
2023/07/15 08:55:31;;;;;;;3.47;2.60;;;28.80;99.90;;;;;;6248580;22;20195;-94
2023/07/15 08:57:59;;;;;;;4.90;2.63;;;28.90;99.90;;;;;;6248885;23;20255;-94
2023/07/15 09:00:26;;;;;;;3.40;2.90;;;29.00;99.90;;;;;;6248129;23;20200;-94
2023/07/15 09:02:53;;;;;;;4.22;3.00;;;29.10;99.90;;;;;;6248767;23;20247;-94
2023/07/15 09:05:21;;;;;;;4.85;3.78;;;29.20;99.90;;;;;;6248204;23;20572;-93
2023/07/15 09:07:51;;;;;;;5.75;3.75;;;29.30;99.90;;;;;;6248578;23;20726;-92
2023/07/15 09:10:18;;;;;;;5.70;3.10;;;29.40;99.90;;;;;;6248220;23;20173;-92
2023/07/15 09:12:48;;;;;;;4.35;2.80;;;29.50;99.90;;;;;;6248874;23;20251;-93
2023/07/15 09:15:15;;;;;;;5.60;2.60;;;29.50;99.90;;;;;;6248823;23;20195;-94
2023/07/15 09:17:50;;;;;;;6.40;3.00;;;29.60;99.90;;;;;;6248703;23;20172;-93
2023/07/15 09:20:18;;;;;;;5.30;2.72;;;29.60;99.90;;;;;;6248517;23;20149;-94
2023/07/15 09:22:45;;;;;;;4.13;3.00;;;29.70;99.90;;;;;;6247574;23;20168;-93
2023/07/15 09:25:12;;;;;;;4.18;2.80;;;29.80;99.90;;;;;;6247703;23;20188;-93
2023/07/15 09:27:42;;;;;;;3.42;2.58;;;29.80;99.90;;;;;;6248208;23;20744;-95
2023/07/15 09:30:11;;;;;;;3.97;2.42;;;29.90;99.90;;;;;;6248324;23;20651;-93
2023/07/15 09:32:38;;;;;;;4.88;3.33;;;29.90;99.90;;;;;;6248397;23;20251;-94
2023/07/15 09:35:06;;;;;;;6.53;3.33;;;29.90;99.90;;;;;;6249370;23;20169;-95
2023/07/15 09:37:34;;;;;;;4.80;3.00;;;29.90;99.90;;;;;;6248601;23;20172;-95
2023/07/15 09:40:03;;;;;;;3.63;2.38;;;30.00;99.90;;;;;;6248020;23;20168;-93
2023/07/15 09:42:30;;;;;;;4.18;2.83;;;30.10;99.90;;;;;;6248133;23;20183;-94
2023/07/15 09:44:57;;;;;;;3.95;3.53;;;30.20;99.90;;;;;;6248669;23;20520;-95
2023/07/15 09:47:28;;;;;;;4.32;2.92;;;30.20;99.90;;;;;;6247413;23;20200;-95
2023/07/15 09:49:55;;;;;;;5.88;3.63;;;30.20;99.90;;;;;;6248220;23;20159;-96
2023/07/15 09:52:22;;;;;;;3.10;2.80;;;30.30;99.90;;;;;;6248430;23;20175;-95
2023/07/15 09:54:50;;;;;;;4.40;2.65;;;30.40;99.90;;;;;;6248461;23;20168;-94
2023/07/15 09:57:20;;;;;;;3.80;2.92;;;30.50;99.90;;;;;;6248534;23;20465;-95
2023/07/15 09:59:48;;;;;;;4.63;2.92;;;30.60;99.90;;;;;;6248361;23;20156;-95
2023/07/15 10:02:28;;;;;;;3.20;2.90;;;30.60;99.90;;;;;;6248270;23;20175;-95
2023/07/15 10:05:02;;;;;;;4.65;2.85;;;30.70;99.90;;;;;;6247836;23;20172;-94
2023/07/15 10:07:29;;;;;;;5.30;2.63;;;30.60;99.90;;;;;;6248726;23;20156;-96
2023/07/15 10:09:57;;;;;;;4.80;2.50;;;30.70;99.90;;;;;;6248231;23;20176;-95
2023/07/15 10:12:25;;;;;;;4.80;2.60;;;30.70;99.90;;;;;;6247568;23;20626;-96
2023/07/15 10:14:52;;;;;;;3.40;2.67;;;30.80;99.90;;;;;;6249111;23;20252;-95
2023/07/15 10:17:19;;;;;;;4.72;3.00;;;31.00;99.90;;;;;;6248319;23;20203;-95
2023/07/15 10:19:48;;;;;;;5.30;2.70;;;31.00;99.40;;;;;;6251100;23;20172;-96
2023/07/15 10:22:18;;;;;;;4.45;2.70;;;31.00;98.90;;;;;;6249091;23;20203;-96
2023/07/15 10:24:53;;;;;;;3.55;3.22;;;31.00;99.90;;;;;;6250555;23;20189;-96
2023/07/15 10:27:20;;;;;;;6.57;2.70;;;31.00;99.90;;;;;;6248519;23;20160;-96
2023/07/15 10:29:47;;;;;;;7.05;2.60;;;31.00;99.90;;;;;;6248779;23;20169;-96
2023/07/15 10:32:16;;;;;;;3.47;2.75;;;31.10;99.90;;;;;;6247588;23;20173;-95
2023/07/15 10:34:50;;;;;;;7.47;2.90;;;31.10;99.90;;;;;;6248557;23;20200;-96
2023/07/15 10:37:18;;;;;;;5.53;2.50;;;31.20;99.90;;;;;;6246928;23;20231;-96
2023/07/15 10:39:45;;;;;;;4.88;2.88;;;31.30;99.50;;;;;;6247902;23;20168;-95
2023/07/15 10:42:14;;;;;;;4.05;2.45;;;31.40;98.60;;;;;;6248662;23;20174;-95
2023/07/15 10:44:44;;;;;;;4.18;2.50;;;31.40;99.90;;;;;;6248227;23;20195;-95
2023/07/15 10:47:14;;;;;;;6.40;2.72;;;31.50;99.90;;;;;;6249587;23;20179;-95
2023/07/15 10:49:40;;;;;;;8.10;2.65;;;31.60;99.90;;;;;;6248414;23;20177;-95
2023/07/15 10:52:10;;;;;;;3.45;2.42;;;31.60;99.90;;;;;;6247580;23;20168;-95
2023/07/15 10:54:38;;;;;;;3.67;2.45;;;31.80;99.90;;;;;;6249682;23;20191;-96
2023/07/15 10:57:10;;;;;;;2.80;2.60;;;31.90;99.90;;;;;;6248413;23;20228;-96
2023/07/15 10:59:39;;;;;;;3.08;2.50;;;32.00;99.90;;;;;;6248113;23;20686;-96
2023/07/15 11:02:07;;;;;;;4.15;2.22;;;32.10;99.90;;;;;;6248576;23;20214;-96
2023/07/15 11:04:35;;;;;;;4.18;2.45;;;32.10;99.90;;;;;;6250465;23;20263;-96
2023/07/15 11:07:03;;;;;;;5.00;2.33;;;32.20;99.60;;;;;;6247886;23;20227;-96
2023/07/15 11:09:32;;;;;;;3.67;2.33;;;32.10;95.90;;;;;;6249160;23;20251;-96
2023/07/15 11:11:59;;;;;;;3.55;2.08;;;32.10;98.70;;;;;;6248736;23;20168;-96
2023/07/15 11:14:27;;;;;;;4.10;2.28;;;32.10;95.60;;;;;;6248543;23;20168;-96
2023/07/15 11:16:56;;;;;;;5.22;2.65;;;32.20;97.40;;;;;;6249537;23;20171;-96
2023/07/15 11:19:24;;;;;;;5.32;2.40;;;32.30;97.90;;;;;;6254864;23;20251;-96
2023/07/15 11:21:52;;;;;;;3.15;2.67;;;32.40;95.40;;;;;;6249527;23;20168;-96
2023/07/15 11:24:21;;;;;;;7.57;3.10;;;32.40;95.90;;;;;;6251973;23;20226;-96
2023/07/15 11:26:50;;;;;;;6.35;3.10;;;32.40;80.60;;;;;;6252245;23;20168;-96
2023/07/15 11:29:18;;;;;;;4.25;3.47;;;32.50;99.90;;;;;;6252313;23;20243;-96
2023/07/15 11:31:47;;;;;;;5.13;3.42;;;32.50;99.90;;;;;;6256523;23;20172;-96
2023/07/15 11:34:17;;;;;;;5.88;3.40;;;32.60;99.90;;;;;;6253731;23;20168;-96
2023/07/15 11:36:45;;;;;;;5.82;3.17;;;32.80;99.90;;;;;;6252429;23;20255;-96
2023/07/15 11:39:13;;;;;;;4.25;2.63;;;33.00;1.00;;;;;;6256262;23;20187;-96
2023/07/15 11:41:40;;;;;;;5.07;2.90;;;33.10;99.90;;;;;;6253728;23;20176;-95
2023/07/15 11:44:10;;;;;;;4.82;2.67;;;;;;;;;;6258710;23;20180;-96
2023/07/15 11:46:38;;;;;;;3.75;2.97;;;33.30;52.20;;;;;;6261903;23;20161;-96
2023/07/15 11:49:05;;;;;;;4.57;3.17;;;33.40;71.50;;;;;;6253299;23;20165;-96
2023/07/15 11:51:33;;;;;;;4.80;2.80;;;33.50;73.50;;;;;;6250899;23;20183;-96
2023/07/15 11:54:02;;;;;;;6.80;2.58;;;33.60;69.60;;;;;;6264288;22;20195;-96
2023/07/15 11:56:36;;;;;;;7.03;2.63;;;33.50;63.50;;;;;;6268782;22;20315;-96
2023/07/15 11:59:03;;;;;;;4.68;4.25;;;33.50;66.60;;;;;;6264820;23;20179;-96
2023/07/15 12:01:35;;;;;;;5.75;2.88;;;33.50;63.10;;;;;;6258829;23;20178;-96
2023/07/15 12:04:01;;;;;;;5.47;3.00;;;33.50;58.60;;;;;;6257933;23;20157;-96
2023/07/15 12:06:29;;;;;;;3.75;2.60;;;33.50;61.50;;;;;;6255083;22;20196;-96
2023/07/15 12:09:01;;;;;;;2.67;2.47;;;33.60;61.00;;;;;;6252634;23;20165;-96
2023/07/15 12:11:28;;;;;;;3.75;2.67;;;33.70;67.30;;;;;;6254338;23;20169;-96
2023/07/15 12:13:55;;;;;;;3.40;2.60;;;33.80;60.10;;;;;;6254722;23;20192;-96
2023/07/15 12:16:22;;;;;;;2.80;2.40;;;33.80;56.50;;;;;;6256552;23;20207;-96
2023/07/15 12:18:52;;;;;;;4.35;2.80;;;33.90;48.30;;;;;;6255737;23;20172;-96
2023/07/15 12:21:19;;;;;;;3.42;2.30;;;34.00;46.60;;;;;;6253071;23;20191;-96
2023/07/15 12:23:46;;;;;;;3.65;2.70;;;34.10;48.70;;;;;;6252837;23;20191;-96
2023/07/15 12:26:13;;;;;;;6.95;2.92;;;34.10;40.70;;;;;;6252666;23;20203;-96
2023/07/15 12:28:40;;;;;;;8.05;3.33;;;34.10;38.40;;;;;;6255007;23;20165;-96
2023/07/15 12:31:07;;;;;;;2.60;2.20;;;34.20;40.50;;;;;;6254157;23;20226;-95
2023/07/15 12:33:34;;;;;;;3.55;2.60;;;34.40;43.20;;;;;;6257841;23;20232;-96
2023/07/15 12:36:02;;;;;;;3.10;2.40;;;34.40;43.10;;;;;;6252335;23;20198;-96
2023/07/15 12:38:32;;;;;;;4.03;2.70;;;34.50;39.40;;;;;;6256569;23;20173;-96
2023/07/15 12:41:04;;;;;;;4.32;2.50;;;34.70;40.50;;;;;;6256083;23;20499;-95
2023/07/15 12:43:31;;;;;;;5.05;2.53;;;34.80;45.30;;;;;;6260013;23;20157;-96
2023/07/15 12:46:01;;;;;;;2.92;2.63;;;35.00;33.40;;;;;;6264560;23;20192;-96
2023/07/15 12:48:32;;;;;;;3.67;2.80;;;35.10;45.10;;;;;;6262461;23;20152;-96
2023/07/15 12:51:03;;;;;;;4.65;2.30;;;35.00;37.60;;;;;;6266873;23;20157;-96
2023/07/15 12:53:30;;;;;;;3.53;2.70;;;35.00;39.70;;;;;;6265091;23;20157;-96
2023/07/15 12:55:56;;;;;;;3.15;2.20;;;35.00;51.50;;;;;;6264779;23;20167;-96
2023/07/15 12:58:24;;;;;;;2.90;2.42;;;34.90;30.70;;;;;;6259975;23;20191;-96
2023/07/15 13:00:57;;;;;;;4.95;2.28;;;34.80;30.90;;;;;;6261790;23;20226;-96
2023/07/15 13:03:24;;;;;;;5.15;2.30;;;34.90;39.30;;;;;;6255417;23;20222;-96